Aviation Digital Data Service (ADDS)

Output produced by METARs form (0238 UTC 25 January 2020)
found at http://www.aviationweather.gov/metar/data/
 
METAR text: YSCB 250230Z AUTO 31016G26KT 9999 // NCD 31/07 Q1014 RF00/0/000/0 FM0245 34012KT 9999 FU NSC
Conditions at: YSCB (CANBERRA (CIV/MI, AU) observed 0230 UTC 25 January 2020
Temperature: 31.0°C (88°F)
Dewpoint: 7.0°C (45°F) [RH = 22%]
Pressure (altimeter): 29.94 inches Hg (1014.0 mb)
Winds: from the NW (310 degrees) at 18 MPH (16 knots; 8.2 m/s)
gusting to 30 MPH (26 knots; 13.4 m/s)
Visibility: 6 or more miles (10+ km)
Ceiling: at least 12,000 feet AGL
Clouds: sky clear below 12,000 feet AGL
Weather: no significant weather observed at this time

METAR text: YSCB 250216Z AUTO 32015G25KT 9999 // NCD 30/06 Q1014 RF00/0/000/0 FM0230 34012KT 9999 FU NSC
Conditions at: YSCB (CANBERRA (CIV/MI, AU) observed 0216 UTC 25 January 2020
Temperature: 30.0°C (86°F)
Dewpoint: 6.0°C (43°F) [RH = 22%]
Pressure (altimeter): 29.94 inches Hg (1014.0 mb)
Winds: from the NW (320 degrees) at 17 MPH (15 knots; 7.7 m/s)
gusting to 29 MPH (25 knots; 12.9 m/s)
Visibility: 6 or more miles (10+ km)
Ceiling: at least 12,000 feet AGL
Clouds: sky clear below 12,000 feet AGL
Weather: no significant weather observed at this time

METAR text: YSCB 250200Z AUTO 33015KT 9999 // NCD 30/06 Q1014 NOSIG
Conditions at: YSCB (CANBERRA (CIV/MI, AU) observed 0200 UTC 25 January 2020
Temperature: 30.0°C (86°F)
Dewpoint: 6.0°C (43°F) [RH = 22%]
Pressure (altimeter): 29.94 inches Hg (1014.0 mb)
Winds: from the NNW (330 degrees) at 17 MPH (15 knots; 7.7 m/s)
Visibility: 6 or more miles (10+ km)
Ceiling: at least 12,000 feet AGL
Clouds: sky clear below 12,000 feet AGL
Weather: no significant weather observed at this time

METAR text: YSCB 250130Z AUTO 33014KT 9999 // NCD 29/08 Q1015 RF00.0/000.0 NOSIG
Conditions at: YSCB (CANBERRA (CIV/MI, AU) observed 0130 UTC 25 January 2020
Temperature: 29.0°C (84°F)
Dewpoint: 8.0°C (46°F) [RH = 27%]
Pressure (altimeter): 29.97 inches Hg (1015.0 mb)
Winds: from the NNW (330 degrees) at 16 MPH (14 knots; 7.2 m/s)
Visibility: 6 or more miles (10+ km)
Ceiling: at least 12,000 feet AGL
Clouds: sky clear below 12,000 feet AGL
Weather: no significant weather observed at this time

METAR text: YSCB 250100Z AUTO 35014KT 9999 // NCD 28/09 Q1015 NOSIG
Conditions at: YSCB (CANBERRA (CIV/MI, AU) observed 0100 UTC 25 January 2020
Temperature: 28.0°C (82°F)
Dewpoint: 9.0°C (48°F) [RH = 30%]
Pressure (altimeter): 29.97 inches Hg (1015.0 mb)
Winds: from the N (350 degrees) at 16 MPH (14 knots; 7.2 m/s)
Visibility: 6 or more miles (10+ km)
Ceiling: at least 12,000 feet AGL
Clouds: sky clear below 12,000 feet AGL
Weather: no significant weather observed at this time

METAR text: YSCB 250030Z AUTO 35015KT 9999 // NCD 28/10 Q1015 RF00.0/000.0 NOSIG
Conditions at: YSCB (CANBERRA (CIV/MI, AU) observed 0030 UTC 25 January 2020
Temperature: 28.0°C (82°F)
Dewpoint: 10.0°C (50°F) [RH = 32%]
Pressure (altimeter): 29.97 inches Hg (1015.0 mb)
Winds: from the N (350 degrees) at 17 MPH (15 knots; 7.7 m/s)
Visibility: 6 or more miles (10+ km)
Ceiling: at least 12,000 feet AGL
Clouds: sky clear below 12,000 feet AGL
Weather: no significant weather observed at this time

METAR text: YSCB 250000Z AUTO 34011KT 9999 // SCT043 27/13 Q1015 NOSIG
Conditions at: YSCB (CANBERRA (CIV/MI, AU) observed 0000 UTC 25 January 2020
Temperature: 27.0°C (81°F)
Dewpoint: 13.0°C (55°F) [RH = 42%]
Pressure (altimeter): 29.97 inches Hg (1015.0 mb)
Winds: from the NNW (340 degrees) at 13 MPH (11 knots; 5.7 m/s)
Visibility: 6 or more miles (10+ km)
Ceiling: at least 12,000 feet AGL
Clouds: scattered clouds at 4300 feet AGL
Weather: no significant weather observed at this time

METAR text: YSCB 242330Z AUTO 35008KT 9999 // SCT034 SCT042 26/15 Q1015
Conditions at: YSCB (CANBERRA (CIV/MI, AU) observed 2330 UTC 24 January 2020
Temperature: 26.0°C (79°F)
Dewpoint: 15.0°C (59°F) [RH = 51%]
Pressure (altimeter): 29.97 inches Hg (1015.0 mb)
Winds: from the N (350 degrees) at 9 MPH (8 knots; 4.1 m/s)
Visibility: 6 or more miles (10+ km)
Ceiling: at least 12,000 feet AGL
Clouds: scattered clouds at 3400 feet AGL
scattered clouds at 4200 feet AGL
Weather: no significant weather observed at this time

METAR text: YSCB 242300Z AUTO 35009KT 9999 // SCT032 24/16 Q1015 NOSIG
Conditions at: YSCB (CANBERRA (CIV/MI, AU) observed 2300 UTC 24 January 2020
Temperature: 24.0°C (75°F)
Dewpoint: 16.0°C (61°F) [RH = 61%]
Pressure (altimeter): 29.97 inches Hg (1015.0 mb)
Winds: from the N (350 degrees) at 10 MPH (9 knots; 4.6 m/s)
Visibility: 6 or more miles (10+ km)
Ceiling: at least 12,000 feet AGL
Clouds: scattered clouds at 3200 feet AGL
Weather: no significant weather observed at this time

METAR text: YSCB 242231Z AUTO 32003KT 9999 // SCT020 BKN027 BKN034 23/16 Q1016 FM2330 03005KT 9999 SCT030
Conditions at: YSCB (CANBERRA (CIV/MI, AU) observed 2231 UTC 24 January 2020
Temperature: 23.0°C (73°F)
Dewpoint: 16.0°C (61°F) [RH = 65%]
Pressure (altimeter): 30.00 inches Hg (1016.0 mb)
Winds: from the NW (320 degrees) at 3 MPH (3 knots; 1.5 m/s)
Visibility: 6 or more miles (10+ km)
Ceiling: 2700 feet AGL
Clouds: scattered clouds at 2000 feet AGL
broken clouds at 2700 feet AGL
broken clouds at 3400 feet AGL
Weather: no significant weather observed at this time

METAR text: YSCB 242230Z AUTO 31002KT 9999 // SCT020 BKN027 BKN034 23/16 Q1016
Conditions at: YSCB (CANBERRA (CIV/MI, AU) observed 2230 UTC 24 January 2020
Temperature: 23.0°C (73°F)
Dewpoint: 16.0°C (61°F) [RH = 65%]
Pressure (altimeter): 30.00 inches Hg (1016.0 mb)
Winds: from the NW (310 degrees) at 2 MPH (2 knots; 1.0 m/s)
Visibility: 6 or more miles (10+ km)
Ceiling: 2700 feet AGL
Clouds: scattered clouds at 2000 feet AGL
broken clouds at 2700 feet AGL
broken clouds at 3400 feet AGL
Weather: no significant weather observed at this time

METAR text: YSCB 242200Z AUTO 34004KT 9999 // BKN021 BKN025 OVC029 22/16 Q1016
Conditions at: YSCB (CANBERRA (CIV/MI, AU) observed 2200 UTC 24 January 2020
Temperature: 22.0°C (72°F)
Dewpoint: 16.0°C (61°F) [RH = 69%]
Pressure (altimeter): 30.00 inches Hg (1016.0 mb)
Winds: from the NNW (340 degrees) at 5 MPH (4 knots; 2.1 m/s)
Visibility: 6 or more miles (10+ km)
Ceiling: 2100 feet AGL
Clouds: broken clouds at 2100 feet AGL
broken clouds at 2500 feet AGL
overcast cloud deck at 2900 feet AGL
Weather: no significant weather observed at this time

METAR text: YSCB 242130Z AUTO 35004KT 330V030 9999 // SCT016 OVC022 21/16 Q1016
Conditions at: YSCB (CANBERRA (CIV/MI, AU) observed 2130 UTC 24 January 2020
Temperature: 21.0°C (70°F)
Dewpoint: 16.0°C (61°F) [RH = 73%]
Pressure (altimeter): 30.00 inches Hg (1016.0 mb)
Winds: from the N (350 degrees) at 5 MPH (4 knots; 2.1 m/s)
Visibility: 6 or more miles (10+ km)
Ceiling: 2200 feet AGL
Clouds: scattered clouds at 1600 feet AGL
overcast cloud deck at 2200 feet AGL
Weather: no significant weather observed at this time

METAR text: YSCB 242100Z AUTO 00000KT 9999 // OVC016 20/16 Q1016
Conditions at: YSCB (CANBERRA (CIV/MI, AU) observed 2100 UTC 24 January 2020
Temperature: 20.0°C (68°F)
Dewpoint: 16.0°C (61°F) [RH = 78%]
Pressure (altimeter): 30.00 inches Hg (1016.0 mb)
Winds: calm
Visibility: 6 or more miles (10+ km)
Ceiling: 1600 feet AGL
Clouds: overcast cloud deck at 1600 feet AGL
Weather: no significant weather observed at this time

METAR text: YSCB 242030Z AUTO 15002KT 9999 // BKN016 OVC022 19/15 Q1015
Conditions at: YSCB (CANBERRA (CIV/MI, AU) observed 2030 UTC 24 January 2020
Temperature: 19.0°C (66°F)
Dewpoint: 15.0°C (59°F) [RH = 78%]
Pressure (altimeter): 29.97 inches Hg (1015.0 mb)
Winds: from the SSE (150 degrees) at 2 MPH (2 knots; 1.0 m/s)
Visibility: 6 or more miles (10+ km)
Ceiling: 1600 feet AGL
Clouds: broken clouds at 1600 feet AGL
overcast cloud deck at 2200 feet AGL
Weather: no significant weather observed at this time

METAR text: YSCB 242000Z AUTO 15004KT 9999 // OVC018 OVC025 19/15 Q1015
Conditions at: YSCB (CANBERRA (CIV/MI, AU) observed 2000 UTC 24 January 2020
Temperature: 19.0°C (66°F)
Dewpoint: 15.0°C (59°F) [RH = 78%]
Pressure (altimeter): 29.97 inches Hg (1015.0 mb)
Winds: from the SSE (150 degrees) at 5 MPH (4 knots; 2.1 m/s)
Visibility: 6 or more miles (10+ km)
Ceiling: 1800 feet AGL
Clouds: overcast cloud deck at 1800 feet AGL
overcast cloud deck at 2500 feet AGL
Weather: no significant weather observed at this time

METAR text: YSCB 241930Z AUTO 15003KT 9999 // OVC018 19/15 Q1015 RF00.0/000.0
Conditions at: YSCB (CANBERRA (CIV/MI, AU) observed 1930 UTC 24 January 2020
Temperature: 19.0°C (66°F)
Dewpoint: 15.0°C (59°F) [RH = 78%]
Pressure (altimeter): 29.97 inches Hg (1015.0 mb)
Winds: from the SSE (150 degrees) at 3 MPH (3 knots; 1.5 m/s)
Visibility: 6 or more miles (10+ km)
Ceiling: 1800 feet AGL
Clouds: overcast cloud deck at 1800 feet AGL
Weather: no significant weather observed at this time

METAR text: YSCB 241900Z AUTO 16004KT 9999 // OVC016 19/15 Q1015
Conditions at: YSCB (CANBERRA (CIV/MI, AU) observed 1900 UTC 24 January 2020
Temperature: 19.0°C (66°F)
Dewpoint: 15.0°C (59°F) [RH = 78%]
Pressure (altimeter): 29.97 inches Hg (1015.0 mb)
Winds: from the SSE (160 degrees) at 5 MPH (4 knots; 2.1 m/s)
Visibility: 6 or more miles (10+ km)
Ceiling: 1600 feet AGL
Clouds: overcast cloud deck at 1600 feet AGL
Weather: no significant weather observed at this time

METAR text: YSCB 241830Z AUTO 16005KT 9999 // OVC018 18/15 Q1015 RF00.0/000.0
Conditions at: YSCB (CANBERRA (CIV/MI, AU) observed 1830 UTC 24 January 2020
Temperature: 18.0°C (64°F)
Dewpoint: 15.0°C (59°F) [RH = 83%]
Pressure (altimeter): 29.97 inches Hg (1015.0 mb)
Winds: from the SSE (160 degrees) at 6 MPH (5 knots; 2.6 m/s)
Visibility: 6 or more miles (10+ km)
Ceiling: 1800 feet AGL
Clouds: overcast cloud deck at 1800 feet AGL
Weather: no significant weather observed at this time

METAR text: YSCB 241800Z AUTO 16004KT 9999 // OVC018 OVC021 18/15 Q1014
Conditions at: YSCB (CANBERRA (CIV/MI, AU) observed 1800 UTC 24 January 2020
Temperature: 18.0°C (64°F)
Dewpoint: 15.0°C (59°F) [RH = 83%]
Pressure (altimeter): 29.94 inches Hg (1014.0 mb)
Winds: from the SSE (160 degrees) at 5 MPH (4 knots; 2.1 m/s)
Visibility: 6 or more miles (10+ km)
Ceiling: 1800 feet AGL
Clouds: overcast cloud deck at 1800 feet AGL
overcast cloud deck at 2100 feet AGL
Weather: no significant weather observed at this time

METAR text: YSCB 241730Z AUTO 16005KT 9999 // OVC022 18/15 Q1014 RF00.0/000.0
Conditions at: YSCB (CANBERRA (CIV/MI, AU) observed 1730 UTC 24 January 2020
Temperature: 18.0°C (64°F)
Dewpoint: 15.0°C (59°F) [RH = 83%]
Pressure (altimeter): 29.94 inches Hg (1014.0 mb)
Winds: from the SSE (160 degrees) at 6 MPH (5 knots; 2.6 m/s)
Visibility: 6 or more miles (10+ km)
Ceiling: 2200 feet AGL
Clouds: overcast cloud deck at 2200 feet AGL
Weather: no significant weather observed at this time

METAR text: YSCB 241705Z AUTO 14004KT 9999 // SCT016 BKN022 OVC028 18/15 Q1015
Conditions at: YSCB (CANBERRA (CIV/MI, AU) observed 1705 UTC 24 January 2020
Temperature: 18.0°C (64°F)
Dewpoint: 15.0°C (59°F) [RH = 83%]
Pressure (altimeter): 29.97 inches Hg (1015.0 mb)
Winds: from the SE (140 degrees) at 5 MPH (4 knots; 2.1 m/s)
Visibility: 6 or more miles (10+ km)
Ceiling: 2200 feet AGL
Clouds: scattered clouds at 1600 feet AGL
broken clouds at 2200 feet AGL
overcast cloud deck at 2800 feet AGL
Weather: no significant weather observed at this time

METAR text: YSCB 241700Z AUTO 14002KT 9999 // SCT016 BKN024 OVC028 18/15 Q1015
Conditions at: YSCB (CANBERRA (CIV/MI, AU) observed 1700 UTC 24 January 2020
Temperature: 18.0°C (64°F)
Dewpoint: 15.0°C (59°F) [RH = 83%]
Pressure (altimeter): 29.97 inches Hg (1015.0 mb)
Winds: from the SE (140 degrees) at 2 MPH (2 knots; 1.0 m/s)
Visibility: 6 or more miles (10+ km)
Ceiling: 2400 feet AGL
Clouds: scattered clouds at 1600 feet AGL
broken clouds at 2400 feet AGL
overcast cloud deck at 2800 feet AGL
Weather: no significant weather observed at this time

METAR text: YSCB 241654Z AUTO 00000KT 9999 // SCT016 BKN024 OVC028 18/15 Q1015
Conditions at: YSCB (CANBERRA (CIV/MI, AU) observed 1654 UTC 24 January 2020
Temperature: 18.0°C (64°F)
Dewpoint: 15.0°C (59°F) [RH = 83%]
Pressure (altimeter): 29.97 inches Hg (1015.0 mb)
Winds: calm
Visibility: 6 or more miles (10+ km)
Ceiling: 2400 feet AGL
Clouds: scattered clouds at 1600 feet AGL
broken clouds at 2400 feet AGL
overcast cloud deck at 2800 feet AGL
Weather: no significant weather observed at this time

METAR text: YSCB 241630Z AUTO 18005KT 9999 // OVC016 18/15 Q1015 RF00.0/000.0
Conditions at: YSCB (CANBERRA (CIV/MI, AU) observed 1630 UTC 24 January 2020
Temperature: 18.0°C (64°F)
Dewpoint: 15.0°C (59°F) [RH = 83%]
Pressure (altimeter): 29.97 inches Hg (1015.0 mb)
Winds: from the S (180 degrees) at 6 MPH (5 knots; 2.6 m/s)
Visibility: 6 or more miles (10+ km)
Ceiling: 1600 feet AGL
Clouds: overcast cloud deck at 1600 feet AGL
Weather: no significant weather observed at this time

METAR text: YSCB 241600Z AUTO 16004KT 9999 // BKN016 OVC022 17/15 Q1015
Conditions at: YSCB (CANBERRA (CIV/MI, AU) observed 1600 UTC 24 January 2020
Temperature: 17.0°C (63°F)
Dewpoint: 15.0°C (59°F) [RH = 88%]
Pressure (altimeter): 29.97 inches Hg (1015.0 mb)
Winds: from the SSE (160 degrees) at 5 MPH (4 knots; 2.1 m/s)
Visibility: 6 or more miles (10+ km)
Ceiling: 1600 feet AGL
Clouds: broken clouds at 1600 feet AGL
overcast cloud deck at 2200 feet AGL
Weather: no significant weather observed at this time

METAR text: YSCB 241530Z AUTO 14004KT 9999 // BKN018 OVC039 17/15 Q1015
Conditions at: YSCB (CANBERRA (CIV/MI, AU) observed 1530 UTC 24 January 2020
Temperature: 17.0°C (63°F)
Dewpoint: 15.0°C (59°F) [RH = 88%]
Pressure (altimeter): 29.97 inches Hg (1015.0 mb)
Winds: from the SE (140 degrees) at 5 MPH (4 knots; 2.1 m/s)
Visibility: 6 or more miles (10+ km)
Ceiling: 1800 feet AGL
Clouds: broken clouds at 1800 feet AGL
overcast cloud deck at 3900 feet AGL
Weather: no significant weather observed at this time

METAR text: YSCB 241517Z AUTO 13004KT 9999 // SCT016 BKN021 BKN026 17/15 Q1015
Conditions at: YSCB (CANBERRA (CIV/MI, AU) observed 1517 UTC 24 January 2020
Temperature: 17.0°C (63°F)
Dewpoint: 15.0°C (59°F) [RH = 88%]
Pressure (altimeter): 29.97 inches Hg (1015.0 mb)
Winds: from the SE (130 degrees) at 5 MPH (4 knots; 2.1 m/s)
Visibility: 6 or more miles (10+ km)
Ceiling: 2100 feet AGL
Clouds: scattered clouds at 1600 feet AGL
broken clouds at 2100 feet AGL
broken clouds at 2600 feet AGL
Weather: no significant weather observed at this time

METAR text: YSCB 241500Z AUTO 14004KT 9999 // SCT016 OVC039 17/14 Q1015
Conditions at: YSCB (CANBERRA (CIV/MI, AU) observed 1500 UTC 24 January 2020
Temperature: 17.0°C (63°F)
Dewpoint: 14.0°C (57°F) [RH = 82%]
Pressure (altimeter): 29.97 inches Hg (1015.0 mb)
Winds: from the SE (140 degrees) at 5 MPH (4 knots; 2.1 m/s)
Visibility: 6 or more miles (10+ km)
Ceiling: 3900 feet AGL
Clouds: scattered clouds at 1600 feet AGL
overcast cloud deck at 3900 feet AGL
Weather: no significant weather observed at this time

METAR text: YSCB 241430Z AUTO 00000KT 9999 // OVC039 17/14 Q1015 RF00.0/000.0
Conditions at: YSCB (CANBERRA (CIV/MI, AU) observed 1430 UTC 24 January 2020
Temperature: 17.0°C (63°F)
Dewpoint: 14.0°C (57°F) [RH = 82%]
Pressure (altimeter): 29.97 inches Hg (1015.0 mb)
Winds: calm
Visibility: 6 or more miles (10+ km)
Ceiling: 3900 feet AGL
Clouds: overcast cloud deck at 3900 feet AGL
Weather: no significant weather observed at this time

METAR text: YSCB 241400Z AUTO 07004KT 9999 // SCT039 17/13 Q1015
Conditions at: YSCB (CANBERRA (CIV/MI, AU) observed 1400 UTC 24 January 2020
Temperature: 17.0°C (63°F)
Dewpoint: 13.0°C (55°F) [RH = 77%]
Pressure (altimeter): 29.97 inches Hg (1015.0 mb)
Winds: from the ENE (70 degrees) at 5 MPH (4 knots; 2.1 m/s)
Visibility: 6 or more miles (10+ km)
Ceiling: at least 12,000 feet AGL
Clouds: scattered clouds at 3900 feet AGL
Weather: no significant weather observed at this time

METAR text: YSCB 241330Z AUTO 00000KT 9999 // NCD 17/14 Q1015 RF00.0/000.0
Conditions at: YSCB (CANBERRA (CIV/MI, AU) observed 1330 UTC 24 January 2020
Temperature: 17.0°C (63°F)
Dewpoint: 14.0°C (57°F) [RH = 82%]
Pressure (altimeter): 29.97 inches Hg (1015.0 mb)
Winds: calm
Visibility: 6 or more miles (10+ km)
Ceiling: at least 12,000 feet AGL
Clouds: sky clear below 12,000 feet AGL
Weather: no significant weather observed at this time

METAR text: YSCB 241300Z AUTO 18004KT 9999 // NCD 18/14 Q1016
Conditions at: YSCB (CANBERRA (CIV/MI, AU) observed 1300 UTC 24 January 2020
Temperature: 18.0°C (64°F)
Dewpoint: 14.0°C (57°F) [RH = 77%]
Pressure (altimeter): 30.00 inches Hg (1016.0 mb)
Winds: from the S (180 degrees) at 5 MPH (4 knots; 2.1 m/s)
Visibility: 6 or more miles (10+ km)
Ceiling: at least 12,000 feet AGL
Clouds: sky clear below 12,000 feet AGL
Weather: no significant weather observed at this time

METAR text: YSCB 241230Z AUTO 14007KT 9999 // NCD 18/14 Q1016 RF00.0/000.0
Conditions at: YSCB (CANBERRA (CIV/MI, AU) observed 1230 UTC 24 January 2020
Temperature: 18.0°C (64°F)
Dewpoint: 14.0°C (57°F) [RH = 77%]
Pressure (altimeter): 30.00 inches Hg (1016.0 mb)
Winds: from the SE (140 degrees) at 8 MPH (7 knots; 3.6 m/s)
Visibility: 6 or more miles (10+ km)
Ceiling: at least 12,000 feet AGL
Clouds: sky clear below 12,000 feet AGL
Weather: no significant weather observed at this time

METAR text: YSCB 241200Z AUTO 09012KT 9999 // NCD 19/14 Q1015
Conditions at: YSCB (CANBERRA (CIV/MI, AU) observed 1200 UTC 24 January 2020
Temperature: 19.0°C (66°F)
Dewpoint: 14.0°C (57°F) [RH = 73%]
Pressure (altimeter): 29.97 inches Hg (1015.0 mb)
Winds: from the E (90 degrees) at 14 MPH (12 knots; 6.2 m/s)
Visibility: 6 or more miles (10+ km)
Ceiling: at least 12,000 feet AGL
Clouds: sky clear below 12,000 feet AGL
Weather: no significant weather observed at this time

METAR text: YSCB 241130Z AUTO 09014KT 9999 // NCD 19/14 Q1015 RF00.0/000.0
Conditions at: YSCB (CANBERRA (CIV/MI, AU) observed 1130 UTC 24 January 2020
Temperature: 19.0°C (66°F)
Dewpoint: 14.0°C (57°F) [RH = 73%]
Pressure (altimeter): 29.97 inches Hg (1015.0 mb)
Winds: from the E (90 degrees) at 16 MPH (14 knots; 7.2 m/s)
Visibility: 6 or more miles (10+ km)
Ceiling: at least 12,000 feet AGL
Clouds: sky clear below 12,000 feet AGL
Weather: no significant weather observed at this time

METAR text: YSCB 241100Z AUTO 09013KT 9999 // NCD 19/14 Q1015
Conditions at: YSCB (CANBERRA (CIV/MI, AU) observed 1100 UTC 24 January 2020
Temperature: 19.0°C (66°F)
Dewpoint: 14.0°C (57°F) [RH = 73%]
Pressure (altimeter): 29.97 inches Hg (1015.0 mb)
Winds: from the E (90 degrees) at 15 MPH (13 knots; 6.7 m/s)
Visibility: 6 or more miles (10+ km)
Ceiling: at least 12,000 feet AGL
Clouds: sky clear below 12,000 feet AGL
Weather: no significant weather observed at this time

METAR text: YSCB 241030Z AUTO 06010KT 9999 // NCD 21/10 Q1014 RF00.0/000.0
Conditions at: YSCB (CANBERRA (CIV/MI, AU) observed 1030 UTC 24 January 2020
Temperature: 21.0°C (70°F)
Dewpoint: 10.0°C (50°F) [RH = 49%]
Pressure (altimeter): 29.94 inches Hg (1014.0 mb)
Winds: from the ENE (60 degrees) at 12 MPH (10 knots; 5.1 m/s)
Visibility: 6 or more miles (10+ km)
Ceiling: at least 12,000 feet AGL
Clouds: sky clear below 12,000 feet AGL
Weather: no significant weather observed at this time

METAR text: YSCB 241000Z AUTO 03009KT 9999 // NCD 22/01 Q1013
Conditions at: YSCB (CANBERRA (CIV/MI, AU) observed 1000 UTC 24 January 2020
Temperature: 22.0°C (72°F)
Dewpoint: 1.0°C (34°F) [RH = 25%]
Pressure (altimeter): 29.91 inches Hg (1013.0 mb)
Winds: from the NNE (30 degrees) at 10 MPH (9 knots; 4.6 m/s)
Visibility: 6 or more miles (10+ km)
Ceiling: at least 12,000 feet AGL
Clouds: sky clear below 12,000 feet AGL
Weather: no significant weather observed at this time

METAR text: YSCB 240930Z AUTO 35009KT 9999 // NCD 23/00 Q1013 RF00.0/000.0
Conditions at: YSCB (CANBERRA (CIV/MI, AU) observed 0930 UTC 24 January 2020
Temperature: 23.0°C (73°F)
Dewpoint: 0.0°C (32°F) [RH = 22%]
Pressure (altimeter): 29.91 inches Hg (1013.0 mb)
Winds: from the N (350 degrees) at 10 MPH (9 knots; 4.6 m/s)
Visibility: 6 or more miles (10+ km)
Ceiling: at least 12,000 feet AGL
Clouds: sky clear below 12,000 feet AGL
Weather: no significant weather observed at this time

METAR text: YSCB 240900Z AUTO 35010KT 9999 // NCD 24/M00 Q1012
Conditions at: YSCB (CANBERRA (CIV/MI, AU) observed 0900 UTC 24 January 2020
Temperature: 24.0°C (75°F)
Dewpoint: 0.0°C (32°F) [RH = 20%]
Pressure (altimeter): 29.88 inches Hg (1012.0 mb)
Winds: from the N (350 degrees) at 12 MPH (10 knots; 5.1 m/s)
Visibility: 6 or more miles (10+ km)
Ceiling: at least 12,000 feet AGL
Clouds: sky clear below 12,000 feet AGL
Weather: no significant weather observed at this time

METAR text: YSCB 240830Z AUTO 36012KT 9999 // NCD 26/M01 Q1011 RF00.0/000.0 NOSIG RMK USE TAF FOR ARRIVALS AFTER 0900Z
Conditions at: YSCB (CANBERRA (CIV/MI, AU) observed 0830 UTC 24 January 2020
Temperature: 26.0°C (79°F)
Dewpoint: -1.0°C (30°F) [RH = 17%]
Pressure (altimeter): 29.85 inches Hg (1011.0 mb)
Winds: from the N (360 degrees) at 14 MPH (12 knots; 6.2 m/s)
Visibility: 6 or more miles (10+ km)
Ceiling: at least 12,000 feet AGL
Clouds: sky clear below 12,000 feet AGL
Weather: no significant weather observed at this time

METAR text: YSCB 240800Z AUTO 33010KT 9999 // NCD 26/M01 Q1011 NOSIG
Conditions at: YSCB (CANBERRA (CIV/MI, AU) observed 0800 UTC 24 January 2020
Temperature: 26.0°C (79°F)
Dewpoint: -1.0°C (30°F) [RH = 17%]
Pressure (altimeter): 29.85 inches Hg (1011.0 mb)
Winds: from the NNW (330 degrees) at 12 MPH (10 knots; 5.1 m/s)
Visibility: 6 or more miles (10+ km)
Ceiling: at least 12,000 feet AGL
Clouds: sky clear below 12,000 feet AGL
Weather: no significant weather observed at this time

METAR text: YSCB 240730Z AUTO 32010KT 9999 // NCD 27/M02 Q1010 RF00.0/000.0 NOSIG RMK USE TAF FOR ARRIVALS AFTER 0900Z
Conditions at: YSCB (CANBERRA (CIV/MI, AU) observed 0730 UTC 24 January 2020
Temperature: 27.0°C (81°F)
Dewpoint: -2.0°C (28°F) [RH = 15%]
Pressure (altimeter): 29.82 inches Hg (1010.0 mb)
Winds: from the NW (320 degrees) at 12 MPH (10 knots; 5.1 m/s)
Visibility: 6 or more miles (10+ km)
Ceiling: at least 12,000 feet AGL
Clouds: sky clear below 12,000 feet AGL
Weather: no significant weather observed at this time

METAR text: YSCB 240700Z AUTO 30009KT 9999 // NCD 27/M02 Q1010 NOSIG
Conditions at: YSCB (CANBERRA (CIV/MI, AU) observed 0700 UTC 24 January 2020
Temperature: 27.0°C (81°F)
Dewpoint: -2.0°C (28°F) [RH = 15%]
Pressure (altimeter): 29.82 inches Hg (1010.0 mb)
Winds: from the WNW (300 degrees) at 10 MPH (9 knots; 4.6 m/s)
Visibility: 6 or more miles (10+ km)
Ceiling: at least 12,000 feet AGL
Clouds: sky clear below 12,000 feet AGL
Weather: no significant weather observed at this time

METAR text: YSCB 240630Z AUTO 30012KT 9999 // NCD 28/M01 Q1011 RF00.0/000.0 NOSIG RMK USE TAF FOR ARRIVALS AFTER 0900Z
Conditions at: YSCB (CANBERRA (CIV/MI, AU) observed 0630 UTC 24 January 2020
Temperature: 28.0°C (82°F)
Dewpoint: -1.0°C (30°F) [RH = 15%]
Pressure (altimeter): 29.85 inches Hg (1011.0 mb)
Winds: from the WNW (300 degrees) at 14 MPH (12 knots; 6.2 m/s)
Visibility: 6 or more miles (10+ km)
Ceiling: at least 12,000 feet AGL
Clouds: sky clear below 12,000 feet AGL
Weather: no significant weather observed at this time

METAR text: YSCB 240600Z AUTO 31013KT 9999 // NCD 27/00 Q1011 NOSIG
Conditions at: YSCB (CANBERRA (CIV/MI, AU) observed 0600 UTC 24 January 2020
Temperature: 27.0°C (81°F)
Dewpoint: 0.0°C (32°F) [RH = 17%]
Pressure (altimeter): 29.85 inches Hg (1011.0 mb)
Winds: from the NW (310 degrees) at 15 MPH (13 knots; 6.7 m/s)
Visibility: 6 or more miles (10+ km)
Ceiling: at least 12,000 feet AGL
Clouds: sky clear below 12,000 feet AGL
Weather: no significant weather observed at this time

METAR text: YSCB 240530Z AUTO 30013KT 9999 // NCD 28/M01 Q1011 RF00.0/000.0 NOSIG
Conditions at: YSCB (CANBERRA (CIV/MI, AU) observed 0530 UTC 24 January 2020
Temperature: 28.0°C (82°F)
Dewpoint: -1.0°C (30°F) [RH = 15%]
Pressure (altimeter): 29.85 inches Hg (1011.0 mb)
Winds: from the WNW (300 degrees) at 15 MPH (13 knots; 6.7 m/s)
Visibility: 6 or more miles (10+ km)
Ceiling: at least 12,000 feet AGL
Clouds: sky clear below 12,000 feet AGL
Weather: no significant weather observed at this time

METAR text: YSCB 240500Z AUTO 30015KT 9999 // NCD 27/03 Q1011 NOSIG
Conditions at: YSCB (CANBERRA (CIV/MI, AU) observed 0500 UTC 24 January 2020
Temperature: 27.0°C (81°F)
Dewpoint: 3.0°C (37°F) [RH = 21%]
Pressure (altimeter): 29.85 inches Hg (1011.0 mb)
Winds: from the WNW (300 degrees) at 17 MPH (15 knots; 7.7 m/s)
Visibility: 6 or more miles (10+ km)
Ceiling: at least 12,000 feet AGL
Clouds: sky clear below 12,000 feet AGL
Weather: no significant weather observed at this time

METAR text: YSCB 240430Z AUTO 32017KT 9999 // NCD 28/03 Q1011 RF00.0/000.0 FM0500 30014KT CAVOK
Conditions at: YSCB (CANBERRA (CIV/MI, AU) observed 0430 UTC 24 January 2020
Temperature: 28.0°C (82°F)
Dewpoint: 3.0°C (37°F) [RH = 20%]
Pressure (altimeter): 29.85 inches Hg (1011.0 mb)
Winds: from the NW (320 degrees) at 20 MPH (17 knots; 8.7 m/s)
Visibility: 6 or more miles (10+ km)
Ceiling: at least 12,000 feet AGL
Clouds: sky clear below 12,000 feet AGL
Weather: no significant weather observed at this time

METAR text: YSCB 240423Z AUTO 33016G26KT 9999 // NCD 28/04 Q1011 RF00/0/000/0 FM0500 30014KT CAVOK
Conditions at: YSCB (CANBERRA (CIV/MI, AU) observed 0423 UTC 24 January 2020
Temperature: 28.0°C (82°F)
Dewpoint: 4.0°C (39°F) [RH = 22%]
Pressure (altimeter): 29.85 inches Hg (1011.0 mb)
Winds: from the NNW (330 degrees) at 18 MPH (16 knots; 8.2 m/s)
gusting to 30 MPH (26 knots; 13.4 m/s)
Visibility: 6 or more miles (10+ km)
Ceiling: at least 12,000 feet AGL
Clouds: sky clear below 12,000 feet AGL
Weather: no significant weather observed at this time

METAR text: YSCB 240400Z AUTO 30017KT 9999 // NCD 27/04 Q1011 NOSIG
Conditions at: YSCB (CANBERRA (CIV/MI, AU) observed 0400 UTC 24 January 2020
Temperature: 27.0°C (81°F)
Dewpoint: 4.0°C (39°F) [RH = 23%]
Pressure (altimeter): 29.85 inches Hg (1011.0 mb)
Winds: from the WNW (300 degrees) at 20 MPH (17 knots; 8.7 m/s)
Visibility: 6 or more miles (10+ km)
Ceiling: at least 12,000 feet AGL
Clouds: sky clear below 12,000 feet AGL
Weather: no significant weather observed at this time

METAR text: YSCB 240330Z AUTO 28015KT 9999 // NCD 28/05 Q1011 RF00.0/000.0 NOSIG
Conditions at: YSCB (CANBERRA (CIV/MI, AU) observed 0330 UTC 24 January 2020
Temperature: 28.0°C (82°F)
Dewpoint: 5.0°C (41°F) [RH = 23%]
Pressure (altimeter): 29.85 inches Hg (1011.0 mb)
Winds: from the W (280 degrees) at 17 MPH (15 knots; 7.7 m/s)
Visibility: 6 or more miles (10+ km)
Ceiling: at least 12,000 feet AGL
Clouds: sky clear below 12,000 feet AGL
Weather: no significant weather observed at this time

METAR text: YSCB 240300Z AUTO 32019G30KT 9999 // NCD 27/06 Q1011 RF00.0/000.0 FM0330 30014KT CAVOK
Conditions at: YSCB (CANBERRA (CIV/MI, AU) observed 0300 UTC 24 January 2020
Temperature: 27.0°C (81°F)
Dewpoint: 6.0°C (43°F) [RH = 26%]
Pressure (altimeter): 29.85 inches Hg (1011.0 mb)
Winds: from the NW (320 degrees) at 22 MPH (19 knots; 9.8 m/s)
gusting to 34 MPH (30 knots; 15.4 m/s)
Visibility: 6 or more miles (10+ km)
Ceiling: at least 12,000 feet AGL
Clouds: sky clear below 12,000 feet AGL
Weather: no significant weather observed at this time

METAR text: YSCB 240257Z AUTO 31018G30KT 9999 // NCD 28/06 Q1011 RF00/0/000/0 FM0330 30014KT CAVOK
Conditions at: YSCB (CANBERRA (CIV/MI, AU) observed 0257 UTC 24 January 2020
Temperature: 28.0°C (82°F)
Dewpoint: 6.0°C (43°F) [RH = 25%]
Pressure (altimeter): 29.85 inches Hg (1011.0 mb)
Winds: from the NW (310 degrees) at 21 MPH (18 knots; 9.3 m/s)
gusting to 34 MPH (30 knots; 15.4 m/s)
Visibility: 6 or more miles (10+ km)
Ceiling: at least 12,000 feet AGL
Clouds: sky clear below 12,000 feet AGL
Weather: no significant weather observed at this time

METAR text: YSCB 240230Z AUTO 30014KT 9999 // NCD 27/06 Q1011 RF00.0/000.0 NOSIG
Conditions at: YSCB (CANBERRA (CIV/MI, AU) observed 0230 UTC 24 January 2020
Temperature: 27.0°C (81°F)
Dewpoint: 6.0°C (43°F) [RH = 26%]
Pressure (altimeter): 29.85 inches Hg (1011.0 mb)
Winds: from the WNW (300 degrees) at 16 MPH (14 knots; 7.2 m/s)
Visibility: 6 or more miles (10+ km)
Ceiling: at least 12,000 feet AGL
Clouds: sky clear below 12,000 feet AGL
Weather: no significant weather observed at this time

METAR text: YSCB 240200Z AUTO 28011KT 9999 // NCD 26/07 Q1011 NOSIG
Conditions at: YSCB (CANBERRA (CIV/MI, AU) observed 0200 UTC 24 January 2020
Temperature: 26.0°C (79°F)
Dewpoint: 7.0°C (45°F) [RH = 30%]
Pressure (altimeter): 29.85 inches Hg (1011.0 mb)
Winds: from the W (280 degrees) at 13 MPH (11 knots; 5.7 m/s)
Visibility: 6 or more miles (10+ km)
Ceiling: at least 12,000 feet AGL
Clouds: sky clear below 12,000 feet AGL
Weather: no significant weather observed at this time

METAR text: YSCB 240130Z AUTO 28013KT 9999 // NCD 26/08 Q1012 RF00.0/000.0 NOSIG
Conditions at: YSCB (CANBERRA (CIV/MI, AU) observed 0130 UTC 24 January 2020
Temperature: 26.0°C (79°F)
Dewpoint: 8.0°C (46°F) [RH = 32%]
Pressure (altimeter): 29.88 inches Hg (1012.0 mb)
Winds: from the W (280 degrees) at 15 MPH (13 knots; 6.7 m/s)
Visibility: 6 or more miles (10+ km)
Ceiling: at least 12,000 feet AGL
Clouds: sky clear below 12,000 feet AGL
Weather: no significant weather observed at this time

METAR text: YSCB 240100Z AUTO 26013KT 9999 // SCT059 25/09 Q1012 NOSIG
Conditions at: YSCB (CANBERRA (CIV/MI, AU) observed 0100 UTC 24 January 2020
Temperature: 25.0°C (77°F)
Dewpoint: 9.0°C (48°F) [RH = 36%]
Pressure (altimeter): 29.88 inches Hg (1012.0 mb)
Winds: from the W (260 degrees) at 15 MPH (13 knots; 6.7 m/s)
Visibility: 6 or more miles (10+ km)
Ceiling: at least 12,000 feet AGL
Clouds: scattered clouds at 5900 feet AGL
Weather: no significant weather observed at this time

METAR text: YSCB 240030Z AUTO 31010KT 9999 // NCD 24/09 Q1012 RF00.0/000.0 NOSIG
Conditions at: YSCB (CANBERRA (CIV/MI, AU) observed 0030 UTC 24 January 2020
Temperature: 24.0°C (75°F)
Dewpoint: 9.0°C (48°F) [RH = 38%]
Pressure (altimeter): 29.88 inches Hg (1012.0 mb)
Winds: from the NW (310 degrees) at 12 MPH (10 knots; 5.1 m/s)
Visibility: 6 or more miles (10+ km)
Ceiling: at least 12,000 feet AGL
Clouds: sky clear below 12,000 feet AGL
Weather: no significant weather observed at this time

METAR text: YSCB 240000Z AUTO 25009KT 9999 // NCD 23/11 Q1012 NOSIG
Conditions at: YSCB (CANBERRA (CIV/MI, AU) observed 0000 UTC 24 January 2020
Temperature: 23.0°C (73°F)
Dewpoint: 11.0°C (52°F) [RH = 47%]
Pressure (altimeter): 29.88 inches Hg (1012.0 mb)
Winds: from the WSW (250 degrees) at 10 MPH (9 knots; 4.6 m/s)
Visibility: 6 or more miles (10+ km)
Ceiling: at least 12,000 feet AGL
Clouds: sky clear below 12,000 feet AGL
Weather: no significant weather observed at this time

METAR text: YSCB 232330Z AUTO 29011KT 9999 // NCD 22/09 Q1012 RF00.0/000.0 NOSIG
Conditions at: YSCB (CANBERRA (CIV/MI, AU) observed 2330 UTC 23 January 2020
Temperature: 22.0°C (72°F)
Dewpoint: 9.0°C (48°F) [RH = 43%]
Pressure (altimeter): 29.88 inches Hg (1012.0 mb)
Winds: from the WNW (290 degrees) at 13 MPH (11 knots; 5.7 m/s)
Visibility: 6 or more miles (10+ km)
Ceiling: at least 12,000 feet AGL
Clouds: sky clear below 12,000 feet AGL
Weather: no significant weather observed at this time

METAR text: YSCB 232300Z AUTO 31013KT 9999 // NCD 21/09 Q1012 NOSIG
Conditions at: YSCB (CANBERRA (CIV/MI, AU) observed 2300 UTC 23 January 2020
Temperature: 21.0°C (70°F)
Dewpoint: 9.0°C (48°F) [RH = 46%]
Pressure (altimeter): 29.88 inches Hg (1012.0 mb)
Winds: from the NW (310 degrees) at 15 MPH (13 knots; 6.7 m/s)
Visibility: 6 or more miles (10+ km)
Ceiling: at least 12,000 feet AGL
Clouds: sky clear below 12,000 feet AGL
Weather: no significant weather observed at this time

METAR text: YSCB 232230Z AUTO 27011KT 9999 // NCD 21/09 Q1012 RF00.0/000.0 NOSIG
Conditions at: YSCB (CANBERRA (CIV/MI, AU) observed 2230 UTC 23 January 2020
Temperature: 21.0°C (70°F)
Dewpoint: 9.0°C (48°F) [RH = 46%]
Pressure (altimeter): 29.88 inches Hg (1012.0 mb)
Winds: from the W (270 degrees) at 13 MPH (11 knots; 5.7 m/s)
Visibility: 6 or more miles (10+ km)
Ceiling: at least 12,000 feet AGL
Clouds: sky clear below 12,000 feet AGL
Weather: no significant weather observed at this time

METAR text: YSCB 232200Z AUTO 32011KT 9999 // NCD 20/09 Q1012
Conditions at: YSCB (CANBERRA (CIV/MI, AU) observed 2200 UTC 23 January 2020
Temperature: 20.0°C (68°F)
Dewpoint: 9.0°C (48°F) [RH = 49%]
Pressure (altimeter): 29.88 inches Hg (1012.0 mb)
Winds: from the NW (320 degrees) at 13 MPH (11 knots; 5.7 m/s)
Visibility: 6 or more miles (10+ km)
Ceiling: at least 12,000 feet AGL
Clouds: sky clear below 12,000 feet AGL
Weather: no significant weather observed at this time

METAR text: YSCB 232130Z AUTO 33009KT 9999 // SCT041 18/12 Q1012 RF00.0/003.2
Conditions at: YSCB (CANBERRA (CIV/MI, AU) observed 2130 UTC 23 January 2020
Temperature: 18.0°C (64°F)
Dewpoint: 12.0°C (54°F) [RH = 68%]
Pressure (altimeter): 29.88 inches Hg (1012.0 mb)
Winds: from the NNW (330 degrees) at 10 MPH (9 knots; 4.6 m/s)
Visibility: 6 or more miles (10+ km)
Ceiling: at least 12,000 feet AGL
Clouds: scattered clouds at 4100 feet AGL
Weather: no significant weather observed at this time

METAR text: YSCB 232100Z AUTO 33009KT 9999 // BKN039 BKN046 17/13 Q1012
Conditions at: YSCB (CANBERRA (CIV/MI, AU) observed 2100 UTC 23 January 2020
Temperature: 17.0°C (63°F)
Dewpoint: 13.0°C (55°F) [RH = 77%]
Pressure (altimeter): 29.88 inches Hg (1012.0 mb)
Winds: from the NNW (330 degrees) at 10 MPH (9 knots; 4.6 m/s)
Visibility: 6 or more miles (10+ km)
Ceiling: 3900 feet AGL
Clouds: broken clouds at 3900 feet AGL
broken clouds at 4600 feet AGL
Weather: no significant weather observed at this time

METAR text: YSCB 232030Z AUTO 35009KT 9999 // OVC037 16/13 Q1011 RF00.0/003.2
Conditions at: YSCB (CANBERRA (CIV/MI, AU) observed 2030 UTC 23 January 2020
Temperature: 16.0°C (61°F)
Dewpoint: 13.0°C (55°F) [RH = 82%]
Pressure (altimeter): 29.85 inches Hg (1011.0 mb)
Winds: from the N (350 degrees) at 10 MPH (9 knots; 4.6 m/s)
Visibility: 6 or more miles (10+ km)
Ceiling: 3700 feet AGL
Clouds: overcast cloud deck at 3700 feet AGL
Weather: no significant weather observed at this time

METAR text: YSCB 232000Z AUTO 34009KT 9999 // OVC035 16/13 Q1011
Conditions at: YSCB (CANBERRA (CIV/MI, AU) observed 2000 UTC 23 January 2020
Temperature: 16.0°C (61°F)
Dewpoint: 13.0°C (55°F) [RH = 82%]
Pressure (altimeter): 29.85 inches Hg (1011.0 mb)
Winds: from the NNW (340 degrees) at 10 MPH (9 knots; 4.6 m/s)
Visibility: 6 or more miles (10+ km)
Ceiling: 3500 feet AGL
Clouds: overcast cloud deck at 3500 feet AGL
Weather: no significant weather observed at this time

METAR text: YSCB 231930Z AUTO 33009KT 9999 // OVC039 15/13 Q1010 RF00.0/003.2
Conditions at: YSCB (CANBERRA (CIV/MI, AU) observed 1930 UTC 23 January 2020
Temperature: 15.0°C (59°F)
Dewpoint: 13.0°C (55°F) [RH = 88%]
Pressure (altimeter): 29.82 inches Hg (1010.0 mb)
Winds: from the NNW (330 degrees) at 10 MPH (9 knots; 4.6 m/s)
Visibility: 6 or more miles (10+ km)
Ceiling: 3900 feet AGL
Clouds: overcast cloud deck at 3900 feet AGL
Weather: no significant weather observed at this time

METAR text: YSCB 231900Z AUTO 34008KT 9999 // OVC041 15/13 Q1009
Conditions at: YSCB (CANBERRA (CIV/MI, AU) observed 1900 UTC 23 January 2020
Temperature: 15.0°C (59°F)
Dewpoint: 13.0°C (55°F) [RH = 88%]
Pressure (altimeter): 29.79 inches Hg (1009.0 mb)
Winds: from the NNW (340 degrees) at 9 MPH (8 knots; 4.1 m/s)
Visibility: 6 or more miles (10+ km)
Ceiling: 4100 feet AGL
Clouds: overcast cloud deck at 4100 feet AGL
Weather: no significant weather observed at this time

METAR text: YSCB 231830Z AUTO 35006KT 9999 // OVC039 16/12 Q1009 RF00.0/003.2
Conditions at: YSCB (CANBERRA (CIV/MI, AU) observed 1830 UTC 23 January 2020
Temperature: 16.0°C (61°F)
Dewpoint: 12.0°C (54°F) [RH = 77%]
Pressure (altimeter): 29.79 inches Hg (1009.0 mb)
Winds: from the N (350 degrees) at 7 MPH (6 knots; 3.1 m/s)
Visibility: 6 or more miles (10+ km)
Ceiling: 3900 feet AGL
Clouds: overcast cloud deck at 3900 feet AGL
Weather: no significant weather observed at this time

METAR text: YSCB 231800Z AUTO 35010KT 9999 // OVC039 16/13 Q1009
Conditions at: YSCB (CANBERRA (CIV/MI, AU) observed 1800 UTC 23 January 2020
Temperature: 16.0°C (61°F)
Dewpoint: 13.0°C (55°F) [RH = 82%]
Pressure (altimeter): 29.79 inches Hg (1009.0 mb)
Winds: from the N (350 degrees) at 12 MPH (10 knots; 5.1 m/s)
Visibility: 6 or more miles (10+ km)
Ceiling: 3900 feet AGL
Clouds: overcast cloud deck at 3900 feet AGL
Weather: no significant weather observed at this time

METAR text: YSCB 231730Z AUTO 35011KT 9999 // OVC039 16/13 Q1009 RF00.0/003.2
Conditions at: YSCB (CANBERRA (CIV/MI, AU) observed 1730 UTC 23 January 2020
Temperature: 16.0°C (61°F)
Dewpoint: 13.0°C (55°F) [RH = 82%]
Pressure (altimeter): 29.79 inches Hg (1009.0 mb)
Winds: from the N (350 degrees) at 13 MPH (11 knots; 5.7 m/s)
Visibility: 6 or more miles (10+ km)
Ceiling: 3900 feet AGL
Clouds: overcast cloud deck at 3900 feet AGL
Weather: no significant weather observed at this time

METAR text: YSCB 231700Z AUTO 34011KT 9999 // OVC039 16/13 Q1008
Conditions at: YSCB (CANBERRA (CIV/MI, AU) observed 1700 UTC 23 January 2020
Temperature: 16.0°C (61°F)
Dewpoint: 13.0°C (55°F) [RH = 82%]
Pressure (altimeter): 29.76 inches Hg (1008.0 mb)
Winds: from the NNW (340 degrees) at 13 MPH (11 knots; 5.7 m/s)
Visibility: 6 or more miles (10+ km)
Ceiling: 3900 feet AGL
Clouds: overcast cloud deck at 3900 feet AGL
Weather: no significant weather observed at this time

METAR text: YSCB 231630Z AUTO 35009KT 9999 // OVC039 17/13 Q1008 RF00.0/003.2
Conditions at: YSCB (CANBERRA (CIV/MI, AU) observed 1630 UTC 23 January 2020
Temperature: 17.0°C (63°F)
Dewpoint: 13.0°C (55°F) [RH = 77%]
Pressure (altimeter): 29.76 inches Hg (1008.0 mb)
Winds: from the N (350 degrees) at 10 MPH (9 knots; 4.6 m/s)
Visibility: 6 or more miles (10+ km)
Ceiling: 3900 feet AGL
Clouds: overcast cloud deck at 3900 feet AGL
Weather: no significant weather observed at this time

METAR text: YSCB 231600Z AUTO 33007KT 9999 // OVC039 17/13 Q1008
Conditions at: YSCB (CANBERRA (CIV/MI, AU) observed 1600 UTC 23 January 2020
Temperature: 17.0°C (63°F)
Dewpoint: 13.0°C (55°F) [RH = 77%]
Pressure (altimeter): 29.76 inches Hg (1008.0 mb)
Winds: from the NNW (330 degrees) at 8 MPH (7 knots; 3.6 m/s)
Visibility: 6 or more miles (10+ km)
Ceiling: 3900 feet AGL
Clouds: overcast cloud deck at 3900 feet AGL
Weather: no significant weather observed at this time

METAR text: YSCB 231530Z AUTO 36004KT 330V070 9999 // OVC037 OVC115 17/13 Q1008
Conditions at: YSCB (CANBERRA (CIV/MI, AU) observed 1530 UTC 23 January 2020
Temperature: 17.0°C (63°F)
Dewpoint: 13.0°C (55°F) [RH = 77%]
Pressure (altimeter): 29.76 inches Hg (1008.0 mb)
Winds: from the N (360 degrees) at 5 MPH (4 knots; 2.1 m/s)
Visibility: 6 or more miles (10+ km)
Ceiling: 3700 feet AGL
Clouds: overcast cloud deck at 3700 feet AGL
overcast cloud deck at 11500 feet AGL
Weather: no significant weather observed at this time

METAR text: YSCB 231500Z AUTO 18005KT 9999 // BKN037 OVC115 17/14 Q1007
Conditions at: YSCB (CANBERRA (CIV/MI, AU) observed 1500 UTC 23 January 2020
Temperature: 17.0°C (63°F)
Dewpoint: 14.0°C (57°F) [RH = 82%]
Pressure (altimeter): 29.73 inches Hg (1007.0 mb)
Winds: from the S (180 degrees) at 6 MPH (5 knots; 2.6 m/s)
Visibility: 6 or more miles (10+ km)
Ceiling: 3700 feet AGL
Clouds: broken clouds at 3700 feet AGL
overcast cloud deck at 11500 feet AGL
Weather: no significant weather observed at this time

Forecast for: YSCB (CANBERRA (CIV/MI, AU)
Text: TAF YSCB 242312Z 2500/2600 35010KT 9000 FU SCT030
Forecast period: 0000 to 0200 UTC 25 January 2020
Forecast type: FROM: standard forecast or significant change
Winds: from the N (350 degrees) at 12 MPH (10 knots; 5.1 m/s)
Visibility: 6 miles (9 km)
Ceiling: at least 12,000 feet AGL
Clouds: scattered clouds at 3000 feet AGL
Weather: FU  (smoke)
Text: FM250200 34012KT 9000 FU NSC
Forecast period: 0200 to 0900 UTC 25 January 2020
Forecast type: FROM: standard forecast or significant change
Winds: from the NNW (340 degrees) at 14 MPH (12 knots; 6.2 m/s)
Visibility: 6 miles (9 km)
Ceiling: unknown
Clouds: missing
Weather: FU  (smoke)
Text: FM250900 04010KT 9000 FU NSC
Forecast period: 0900 to 1100 UTC 25 January 2020
Forecast type: FROM: standard forecast or significant change
Winds: from the NE (40 degrees) at 12 MPH (10 knots; 5.1 m/s)
Visibility: 6 miles (9 km)
Ceiling: unknown
Clouds: missing
Weather: FU  (smoke)
Text: FM251100 08006KT 6000 FU FEW015
Forecast period: 1100 to 1400 UTC 25 January 2020
Forecast type: FROM: standard forecast or significant change
Winds: from the E (80 degrees) at 7 MPH (6 knots; 3.1 m/s)
Visibility: 4 miles (6 km)
Ceiling: at least 12,000 feet AGL
Clouds: few clouds at 1500 feet AGL
Weather: FU  (smoke)
Text: FM251400 13006KT 6000 FU BKN012
Forecast period: 1400 to 2100 UTC 25 January 2020
Forecast type: FROM: standard forecast or significant change
Winds: from the SE (130 degrees) at 7 MPH (6 knots; 3.1 m/s)
Visibility: 4 miles (6 km)
Ceiling: 1200 feet AGL
Clouds: broken clouds at 1200 feet AGL
Weather: FU  (smoke)
Text: BECMG 2521/2523 32010KT 8000 FU NSC
Forecast period: 2100 UTC 25 January 2020 to 0000 UTC 26 January 2020
Forecast type: BECOMING: Conditions expected to become as follows by 2300 UTC 25 January 2020
Winds: from the NW (320 degrees) at 12 MPH (10 knots; 5.1 m/s)
Visibility: 5 miles (8 km)
Ceiling: unknown
Clouds: missing
Weather: FU  (smoke)
Text: PROB30 2510/2523 4000 FU
Forecast period: 1000 to 2300 UTC 25 January 2020
Forecast type: PROBABLE: 30 percent likelihood of the following during this time
Visibility: 2.49 miles (4.01 km)
Ceiling: unknown
Clouds: missing
Weather: FU  (smoke)